Time;durP1;ratioP1;P1;durP2;ratioP2;P2;SDS_P1;SDS_P2;PMS_P1;PMS_P2;Temp;Humidity;BMP_temperature;BMP_pressure;BME280_temperature;BME280_humidity;BME280_pressure;Samples;Min_cycle;Max_cycle;Signal;HPM_P1;HPM_P2
2023/06/01 00:00:56;;;;;;;8.5;5.6;;;;;;;14.33;79.12695;938.5446;;;;
2023/06/01 00:03:26;;;;;;;8.1;5.3;;;;;;;14.36;78.85645;938.5861;;;;
2023/06/01 00:05:49;;;;;;;6.9;5.3;;;;;;;14.37;78.83496;938.5604;;;;
2023/06/01 00:08:16;;;;;;;7.2;5.5;;;;;;;14.26;79.56445;938.5153;;;;
2023/06/01 00:10:41;;;;;;;7.9;5.7;;;;;;;14.1;80.19043;938.5652;;;;
2023/06/01 00:13:09;;;;;;;9.9;6;;;;;;;14.13;80.12695;938.5939;;;;
2023/06/01 00:15:35;;;;;;;8.4;6;;;;;;;14.04;80.36328;938.628;;;;
2023/06/01 00:18:01;;;;;;;8.5;5.6;;;;;;;13.96;81.10938;938.6222;;;;
2023/06/01 00:20:28;;;;;;;8;5.8;;;;;;;14.07;80.54297;938.6214;;;;
2023/06/01 00:22:58;;;;;;;10.5;6.1;;;;;;;14.1;80.15625;938.6061;;;;
2023/06/01 00:25:21;;;;;;;7.6;5.2;;;;;;;14.11;79.92969;938.6085;;;;
2023/06/01 00:28:54;;;;;;;7.4;5.2;;;;;;;14.05;79.7666;938.5494;;;;
2023/06/01 00:31:23;;;;;;;8.3;5.5;;;;;;;13.88;80.18555;938.5592;;;;
2023/06/01 00:33:48;;;;;;;6.6;5.6;;;;;;;13.81;80.62109;938.568;;;;
2023/06/01 00:36:15;;;;;;;6.7;5.5;;;;;;;13.79;80.61621;938.568;;;;
2023/06/01 00:38:40;;;;;;;7.2;5.3;;;;;;;13.76;80.79492;938.5097;;;;
2023/06/01 00:41:08;;;;;;;9.2;5.5;;;;;;;13.67;81.18066;938.4714;;;;
2023/06/01 00:43:33;;;;;;;7.3;5.6;;;;;;;13.68;81.1709;938.4659;;;;
2023/06/01 00:45:59;;;;;;;8;5.6;;;;;;;13.7;81.25488;938.4458;;;;
2023/06/01 00:48:24;;;;;;;8.8;5.8;;;;;;;13.74;81.05566;938.4257;;;;
2023/06/01 00:50:52;;;;;;;7.8;5.9;;;;;;;13.74;81.30859;938.4592;;;;
2023/06/01 00:53:18;;;;;;;6.7;5.2;;;;;;;13.69;81.4043;938.3722;;;;
2023/06/01 00:55:46;;;;;;;6.6;5.7;;;;;;;13.54;82.15723;938.449;;;;
2023/06/01 00:58:11;;;;;;;9.3;5.6;;;;;;;13.42;82.66406;938.43;;;;
2023/06/01 01:00:37;;;;;;;7.2;5.8;;;;;;;13.38;82.89648;938.3562;;;;
2023/06/01 01:03:07;;;;;;;7.3;5.3;;;;;;;13.24;83.85742;938.3427;;;;
2023/06/01 01:05:27;;;;;;;8.3;5.3;;;;;;;13.17;84.31738;938.3622;;;;
2023/06/01 01:07:52;;;;;;;8;5.6;;;;;;;13.22;83.98145;938.4011;;;;
2023/06/01 01:10:17;;;;;;;7.7;5.8;;;;;;;13.09;84.3916;938.4182;;;;
2023/06/01 01:12:42;;;;;;;17.6;6.1;;;;;;;13.15;84.33496;938.3942;;;;
2023/06/01 01:15:08;;;;;;;7.3;5.4;;;;;;;13.12;84.26074;938.4317;;;;
2023/06/01 01:17:38;;;;;;;7.4;5.6;;;;;;;12.98;84.91113;938.4522;;;;
2023/06/01 01:20:12;;;;;;;6.5;5.8;;;;;;;12.91;85.60645;938.3834;;;;
2023/06/01 01:22:38;;;;;;;6;5.4;;;;;;;13.15;84.58789;938.4677;;;;
2023/06/01 01:25:03;;;;;;;6.7;5.3;;;;;;;13.18;83.99609;938.4472;;;;
2023/06/01 01:27:31;;;;;;;8.6;6.2;;;;;;;13.21;84.43945;938.4363;;;;
2023/06/01 01:29:57;;;;;;;8.3;6.1;;;;;;;13.16;84.51953;938.407;;;;
2023/06/01 01:32:21;;;;;;;7.3;5.8;;;;;;;13.26;84.33301;938.457;;;;
2023/06/01 01:34:47;;;;;;;7.1;5.6;;;;;;;13.38;83.50586;938.4386;;;;
2023/06/01 01:37:16;;;;;;;8.8;5.9;;;;;;;13.4;83.24609;938.4122;;;;
2023/06/01 01:39:41;;;;;;;8.4;5.8;;;;;;;13.38;83.15137;938.4297;;;;
2023/06/01 01:42:07;;;;;;;7.7;5.5;;;;;;;13.51;82.1748;938.4634;;;;
2023/06/01 01:44:32;;;;;;;7.6;5.5;;;;;;;13.46;82.2334;938.3851;;;;
2023/06/01 01:47:01;;;;;;;6.7;5.4;;;;;;;13.38;82.57617;938.4177;;;;
2023/06/01 01:49:25;;;;;;;8;5.7;;;;;;;13.32;82.75781;938.4155;;;;
2023/06/01 01:51:51;;;;;;;9.2;5.5;;;;;;;13.35;82.60449;938.4114;;;;
2023/06/01 01:54:19;;;;;;;7.3;5.4;;;;;;;13.37;82.34473;938.4146;;;;
2023/06/01 01:56:43;;;;;;;6.8;5.7;;;;;;;13.19;83.11328;938.3784;;;;
2023/06/01 01:59:09;;;;;;;9;5.9;;;;;;;13.19;83.19141;938.3312;;;;
2023/06/01 02:01:35;;;;;;;7.6;6.1;;;;;;;12.97;84.20898;938.3675;;;;
2023/06/01 02:04:03;;;;;;;7;5.8;;;;;;;13.05;83.8916;938.3597;;;;
2023/06/01 02:06:27;;;;;;;9.3;6;;;;;;;13.08;83.80469;938.3391;;;;
2023/06/01 02:08:54;;;;;;;8.9;5.5;;;;;;;13.06;83.73047;938.3661;;;;
2023/06/01 02:11:20;;;;;;;7.7;5.7;;;;;;;13;83.6875;938.3003;;;;
2023/06/01 02:13:45;;;;;;;10;6;;;;;;;12.99;83.89063;938.2795;;;;
2023/06/01 02:16:10;;;;;;;6.9;5.8;;;;;;;12.99;83.80859;938.2964;;;;
2023/06/01 02:18:41;;;;;;;7.2;5.7;;;;;;;12.99;83.76465;938.3563;;;;
2023/06/01 02:21:04;;;;;;;9.3;5.8;;;;;;;13.01;83.75781;938.3182;;;;
2023/06/01 02:23:30;;;;;;;8.1;6;;;;;;;12.9;84.24023;938.3555;;;;
2023/06/01 02:25:55;;;;;;;8.3;5.8;;;;;;;12.92;83.85547;938.3579;;;;
2023/06/01 02:28:23;;;;;;;6.7;5.6;;;;;;;12.88;84.00586;938.3571;;;;
2023/06/01 02:30:48;;;;;;;7.9;5.8;;;;;;;12.82;84.43164;938.345;;;;
2023/06/01 02:33:14;;;;;;;7.9;5.7;;;;;;;12.78;84.61719;938.3663;;;;
2023/06/01 02:35:39;;;;;;;7.1;5.7;;;;;;;12.56;85.61914;938.2514;;;;
2023/06/01 02:38:07;;;;;;;8.5;5.8;;;;;;;12.54;85.85645;938.2642;;;;
2023/06/01 02:40:32;;;;;;;6.8;6;;;;;;;12.44;86.36621;938.2991;;;;
2023/06/01 02:42:57;;;;;;;7.6;6.3;;;;;;;12.21;88.00488;938.282;;;;
2023/06/01 02:45:22;;;;;;;8.6;6.1;;;;;;;12.19;88.54883;938.2619;;;;
2023/06/01 02:47:49;;;;;;;8.3;5.9;;;;;;;12.42;87.4043;938.2192;;;;
2023/06/01 02:50:15;;;;;;;10.2;6.6;;;;;;;12.4;87.24023;938.2364;;;;
2023/06/01 02:52:45;;;;;;;10.1;6.4;;;;;;;12.26;88.1875;938.2289;;;;
2023/06/01 02:55:17;;;;;;;8.4;6.3;;;;;;;12.24;88.43457;938.2273;;;;
2023/06/01 02:57:42;;;;;;;7.9;6.3;;;;;;;12.24;88.49121;938.2321;;;;
2023/06/01 03:00:17;;;;;;;6.8;5.9;;;;;;;12.49;87.26953;938.213;;;;
2023/06/01 03:02:41;;;;;;;8;6;;;;;;;12.48;87.18555;938.1699;;;;
2023/06/01 03:05:14;;;;;;;8.7;6.1;;;;;;;12.56;86.99609;938.2514;;;;
2023/06/01 03:07:38;;;;;;;7.9;6.1;;;;;;;12.48;86.90137;938.1747;;;;
2023/06/01 03:13:31;;;;;;;8.7;6;;;;;;;12.47;86.81738;938.1826;;;;
2023/06/01 03:16:00;;;;;;;8.1;5.9;;;;;;;12.43;86.44336;938.2328;;;;
2023/06/01 03:18:31;;;;;;;7.6;5.7;;;;;;;12.19;87.54199;938.2053;;;;
2023/06/01 03:20:57;;;;;;;7.7;6.2;;;;;;;12.15;87.93652;938.2371;;;;
2023/06/01 03:23:25;;;;;;;10.5;6.6;;;;;;;12.31;87.44043;938.277;;;;
2023/06/01 03:25:50;;;;;;;7.4;5.9;;;;;;;12.15;87.86523;938.2419;;;;
2023/06/01 03:28:16;;;;;;;8.4;6.1;;;;;;;12.12;88.49023;938.2083;;;;
2023/06/01 03:30:42;;;;;;;7.6;6;;;;;;;12.16;87.86719;938.2738;;;;
2023/06/01 03:33:09;;;;;;;7.6;6.5;;;;;;;12.15;88.15234;938.2969;;;;
2023/06/01 03:35:34;;;;;;;8.2;6.7;;;;;;;12.3;87.42676;938.3568;;;;
2023/06/01 03:38:02;;;;;;;7.1;6;;;;;;;12.32;87.14355;938.2977;;;;
2023/06/01 03:40:27;;;;;;;8.9;6.1;;;;;;;12.37;87.02637;938.3035;;;;
2023/06/01 03:42:55;;;;;;;7.2;5.7;;;;;;;12.46;86.62207;938.2057;;;;
2023/06/01 03:45:20;;;;;;;7.4;6.3;;;;;;;12.45;86.50391;938.2872;;;;
2023/06/01 03:47:49;;;;;;;8.7;6;;;;;;;12.24;88.18164;938.2137;;;;
2023/06/01 03:56:12;;;;;;;8.4;6;;;;;;;12.45;87.23828;938.288;;;;
2023/06/01 03:58:40;;;;;;;8.2;6;;;;;;;12.49;86.8457;938.3072;;;;
2023/06/01 04:02:31;;;;;;;7.9;6;;;;;;;12.3;87.45898;938.3464;;;;
2023/06/01 04:04:56;;;;;;;8.3;6.3;;;;;;;12.34;87.42285;938.3225;;;;
2023/06/01 04:07:22;;;;;;;8;6.1;;;;;;;12.33;87.51465;938.3409;;;;
2023/06/01 04:09:51;;;;;;;8.2;6.5;;;;;;;12.29;87.97363;938.3272;;;;
2023/06/01 04:12:16;;;;;;;9.6;6.5;;;;;;;12.13;89.00781;938.3392;;;;
2023/06/01 04:14:45;;;;;;;10.5;6.5;;;;;;;12.31;88.2998;938.3073;;;;
2023/06/01 04:17:10;;;;;;;7.7;6.2;;;;;;;12.39;87.65137;938.2084;;;;
2023/06/01 04:19:38;;;;;;;13.1;7.1;;;;;;;12.33;87.87891;938.2922;;;;
2023/06/01 04:22:04;;;;;;;10.1;6.7;;;;;;;12.52;87.64258;938.2609;;;;
2023/06/01 04:24:29;;;;;;;7.5;6.1;;;;;;;12.7;86.31348;938.3191;;;;
2023/06/01 04:26:58;;;;;;;8.4;6.3;;;;;;;12.74;85.875;938.2799;;;;
2023/06/01 04:29:22;;;;;;;10.1;6.5;;;;;;;12.68;86.11328;938.2647;;;;
2023/06/01 04:31:49;;;;;;;8.9;6.1;;;;;;;12.64;87.10547;938.3134;;;;
2023/06/01 04:34:14;;;;;;;9.2;5.9;;;;;;;12.8;85.91992;938.3391;;;;
2023/06/01 04:41:43;;;;;;;11.6;6.6;;;;;;;13.02;85.20508;938.3293;;;;
2023/06/01 04:44:08;;;;;;;9.7;6.3;;;;;;;13.14;84.53906;938.3198;;;;
2023/06/01 04:46:39;;;;;;;9.3;7.1;;;;;;;13.08;84.72363;938.3638;;;;
2023/06/01 04:49:02;;;;;;;10;6.7;;;;;;;13.12;84.55957;938.3462;;;;
2023/06/01 04:51:30;;;;;;;10.9;6.5;;;;;;;13.18;84.16797;938.3433;;;;
2023/06/01 04:53:54;;;;;;;11.8;7.1;;;;;;;13.19;84.21582;938.3361;;;;
2023/06/01 04:56:20;;;;;;;9.5;6.2;;;;;;;13.23;83.81152;938.3516;;;;
2023/06/01 04:58:47;;;;;;;7.6;6.1;;;;;;;13.19;84.42285;938.3273;;;;
2023/06/01 05:01:15;;;;;;;7.9;5.9;;;;;;;;;;;;;
2023/06/01 05:03:37;;;;;;;8.2;6.7;;;;;;;;;;;;;
2023/06/01 05:06:02;;;;;;;8.6;5.6;;;;;;;;;;;;;
2023/06/01 05:08:27;;;;;;;8.2;5.5;;;;;;;;;;;;;
2023/06/01 05:10:54;;;;;;;7.5;5;;;;;;;;;;;;;
2023/06/01 05:13:19;;;;;;;8;5.1;;;;;;;;;;;;;
2023/06/01 05:15:44;;;;;;;6.7;4.9;;;;;;;;;;;;;
2023/06/01 05:18:10;;;;;;;7;4.9;;;;;;;;;;;;;
2023/06/01 05:20:35;;;;;;;7.9;4.9;;;;;;;;;;;;;
2023/06/01 05:23:00;;;;;;;7.5;4.7;;;;;;;;;;;;;
2023/06/01 05:25:25;;;;;;;10.5;4.8;;;;;;;;;;;;;
2023/06/01 05:27:50;;;;;;;8.3;4.7;;;;;;;;;;;;;
2023/06/01 05:30:15;;;;;;;9.9;4.8;;;;;;;;;;;;;
2023/06/01 05:32:41;;;;;;;6.6;4.8;;;;;;;;;;;;;
2023/06/01 05:35:06;;;;;;;8.2;4.8;;;;;;;;;;;;;
2023/06/01 05:37:32;;;;;;;7.3;4.7;;;;;;;;;;;;;
2023/06/01 05:39:57;;;;;;;7.6;4.8;;;;;;;;;;;;;
2023/06/01 05:42:24;;;;;;;11.2;4.8;;;;;;;;;;;;;
2023/06/01 05:44:49;;;;;;;6.2;4.4;;;;;;;;;;;;;
2023/06/01 05:47:14;;;;;;;6.5;4.3;;;;;;;;;;;;;
2023/06/01 05:49:39;;;;;;;7.2;4.9;;;;;;;;;;;;;
2023/06/01 05:52:06;;;;;;;7.3;4.9;;;;;;;;;;;;;
2023/06/01 05:54:31;;;;;;;7.4;4.7;;;;;;;;;;;;;
2023/06/01 05:56:56;;;;;;;6;4.5;;;;;;;;;;;;;
2023/06/01 05:59:21;;;;;;;5.4;4.7;;;;;;;;;;;;;
2023/06/01 06:01:47;;;;;;;7.5;4.6;;;;;;;;;;;;;
2023/06/01 06:04:13;;;;;;;7.9;4.7;;;;;;;;;;;;;
2023/06/01 06:06:38;;;;;;;8.3;5;;;;;;;;;;;;;
2023/06/01 06:09:04;;;;;;;6.1;4.6;;;;;;;;;;;;;
2023/06/01 06:11:29;;;;;;;6.7;3.9;;;;;;;;;;;;;
2023/06/01 06:13:55;;;;;;;6.6;4.1;;;;;;;;;;;;;
2023/06/01 06:16:20;;;;;;;6.8;4;;;;;;;;;;;;;
2023/06/01 06:18:47;;;;;;;5.9;4;;;;;;;;;;;;;
2023/06/01 06:21:12;;;;;;;4.3;3.6;;;;;;;;;;;;;
2023/06/01 06:23:39;;;;;;;7.5;4.2;;;;;;;;;;;;;
2023/06/01 06:26:03;;;;;;;6.4;3.9;;;;;;;;;;;;;
2023/06/01 06:28:30;;;;;;;4.2;3.5;;;;;;;;;;;;;
2023/06/01 06:30:56;;;;;;;5.7;3.8;;;;;;;;;;;;;
2023/06/01 06:33:20;;;;;;;6.6;4.1;;;;;;;;;;;;;
2023/06/01 06:35:45;;;;;;;6.7;4.2;;;;;;;;;;;;;
2023/06/01 06:38:13;;;;;;;5.7;3.9;;;;;;;;;;;;;
2023/06/01 06:40:38;;;;;;;6.6;3.9;;;;;;;;;;;;;
2023/06/01 06:43:03;;;;;;;5.7;4;;;;;;;;;;;;;
2023/06/01 06:45:28;;;;;;;7.6;3.9;;;;;;;;;;;;;
2023/06/01 06:47:53;;;;;;;4.8;3.8;;;;;;;;;;;;;
2023/06/01 06:50:20;;;;;;;5.8;3.7;;;;;;;;;;;;;
2023/06/01 06:52:45;;;;;;;4.6;3.4;;;;;;;;;;;;;
2023/06/01 06:55:10;;;;;;;5.5;3.5;;;;;;;;;;;;;
2023/06/01 06:57:36;;;;;;;6.8;3.6;;;;;;;;;;;;;
2023/06/01 07:00:05;;;;;;;4.7;3.6;;;;;;;;;;;;;
2023/06/01 07:02:27;;;;;;;5.6;4.2;;;;;;;;;;;;;
2023/06/01 07:04:51;;;;;;;4.6;3.6;;;;;;;;;;;;;
2023/06/01 07:07:16;;;;;;;4.1;3.5;;;;;;;;;;;;;
2023/06/01 07:09:43;;;;;;;5.5;3.4;;;;;;;;;;;;;
2023/06/01 07:12:09;;;;;;;7.4;3.7;;;;;;;;;;;;;
2023/06/01 07:14:34;;;;;;;5.6;3.8;;;;;;;;;;;;;
2023/06/01 07:16:59;;;;;;;7.1;3.7;;;;;;;;;;;;;
2023/06/01 07:19:32;;;;;;;6.3;3.8;;;;;;;;;;;;;
2023/06/01 07:21:50;;;;;;;5.6;3.6;;;;;;;;;;;;;
2023/06/01 07:24:17;;;;;;;7.3;3.7;;;;;;;;;;;;;
2023/06/01 07:26:41;;;;;;;5;3.6;;;;;;;;;;;;;
2023/06/01 07:29:08;;;;;;;6.6;3.8;;;;;;;;;;;;;
2023/06/01 07:31:33;;;;;;;6.7;3.8;;;;;;;;;;;;;
2023/06/01 07:33:58;;;;;;;6.1;3.8;;;;;;;;;;;;;
2023/06/01 07:36:24;;;;;;;4.9;3.7;;;;;;;;;;;;;
2023/06/01 07:38:50;;;;;;;4.8;3.5;;;;;;;;;;;;;
2023/06/01 07:41:15;;;;;;;5;3.7;;;;;;;;;;;;;
2023/06/01 07:43:43;;;;;;;6.3;3.6;;;;;;;;;;;;;
2023/06/01 07:46:08;;;;;;;5.7;3.7;;;;;;;;;;;;;
2023/06/01 07:48:36;;;;;;;5.2;3.8;;;;;;;;;;;;;
2023/06/01 07:51:00;;;;;;;5.8;3.6;;;;;;;;;;;;;
2023/06/01 07:53:26;;;;;;;4.2;3.7;;;;;;;;;;;;;
2023/06/01 07:55:51;;;;;;;4.4;3.5;;;;;;;;;;;;;
2023/06/01 07:58:16;;;;;;;4.9;3.5;;;;;;;;;;;;;
2023/06/01 08:00:42;;;;;;;4.2;3.3;;;;;;;;;;;;;
2023/06/01 08:03:08;;;;;;;4.4;3.4;;;;;;;;;;;;;
2023/06/01 08:05:34;;;;;;;6.3;3.7;;;;;;;;;;;;;
2023/06/01 08:08:00;;;;;;;4.7;3.6;;;;;;;;;;;;;
2023/06/01 08:10:24;;;;;;;5.6;3.6;;;;;;;;;;;;;
2023/06/01 08:12:52;;;;;;;5;3.6;;;;;;;;;;;;;
2023/06/01 08:15:15;;;;;;;4.7;3.5;;;;;;;;;;;;;
2023/06/01 08:17:40;;;;;;;5.1;3.6;;;;;;;;;;;;;
2023/06/01 08:20:10;;;;;;;5.9;4.3;;;;;;;;;;;;;
2023/06/01 08:22:31;;;;;;;5.2;3.6;;;;;;;;;;;;;
2023/06/01 08:24:57;;;;;;;5.1;3.8;;;;;;;;;;;;;
2023/06/01 08:27:21;;;;;;;6.4;3.8;;;;;;;;;;;;;
2023/06/01 08:29:48;;;;;;;35.9;5.9;;;;;;;;;;;;;
2023/06/01 08:32:12;;;;;;;9.4;3.8;;;;;;;;;;;;;
2023/06/01 08:34:39;;;;;;;6.5;4.3;;;;;;;;;;;;;
2023/06/01 08:37:04;;;;;;;4.6;3.5;;;;;;;;;;;;;
2023/06/01 08:39:29;;;;;;;5.7;4.5;;;;;;;;;;;;;
2023/06/01 08:41:55;;;;;;;6;3.7;;;;;;;;;;;;;
2023/06/01 08:44:21;;;;;;;4.9;4;;;;;;;;;;;;;
2023/06/01 08:46:46;;;;;;;5.2;3.7;;;;;;;;;;;;;
2023/06/01 08:49:13;;;;;;;4.5;4;;;;;;;;;;;;;
2023/06/01 08:51:38;;;;;;;7.8;4.2;;;;;;;;;;;;;
2023/06/01 08:54:04;;;;;;;7;4.1;;;;;;;;;;;;;
2023/06/01 08:56:29;;;;;;;6;4;;;;;;;;;;;;;
2023/06/01 08:58:54;;;;;;;5.7;4.3;;;;;;;;;;;;;
2023/06/01 09:01:21;;;;;;;8.7;4.8;;;;;;;;;;;;;
2023/06/01 09:03:46;;;;;;;5.9;4.1;;;;;;;;;;;;;
2023/06/01 09:06:10;;;;;;;5.5;4.1;;;;;;;;;;;;;
2023/06/01 09:08:37;;;;;;;7.2;4.3;;;;;;;;;;;;;
2023/06/01 09:11:02;;;;;;;9.1;4.4;;;;;;;;;;;;;
2023/06/01 09:13:28;;;;;;;8.6;4;;;;;;;;;;;;;
2023/06/01 09:15:54;;;;;;;7.1;4.5;;;;;;;;;;;;;
2023/06/01 09:18:20;;;;;;;5.3;4.3;;;;;;;;;;;;;
2023/06/01 09:20:45;;;;;;;7;4.5;;;;;;;;;;;;;
2023/06/01 09:23:10;;;;;;;6.2;4.5;;;;;;;;;;;;;
2023/06/01 09:25:36;;;;;;;10.1;5.4;;;;;;;;;;;;;
2023/06/01 09:28:02;;;;;;;8.1;4.3;;;;;;;;;;;;;
2023/06/01 09:30:28;;;;;;;7.6;4.5;;;;;;;;;;;;;
2023/06/01 09:32:55;;;;;;;9.6;4.9;;;;;;;;;;;;;
2023/06/01 09:35:20;;;;;;;9.3;4.2;;;;;;;;;;;;;
2023/06/01 09:37:47;;;;;;;8.5;4.7;;;;;;;;;;;;;
2023/06/01 09:40:12;;;;;;;7.5;4.3;;;;;;;;;;;;;
2023/06/01 09:42:37;;;;;;;8.2;4.7;;;;;;;;;;;;;
2023/06/01 09:45:03;;;;;;;8.4;4.7;;;;;;;;;;;;;
2023/06/01 09:47:29;;;;;;;7.2;4.8;;;;;;;;;;;;;
2023/06/01 09:49:58;;;;;;;6.9;4.8;;;;;;;;;;;;;
2023/06/01 09:52:19;;;;;;;7.7;4.5;;;;;;;;;;;;;
2023/06/01 09:54:44;;;;;;;7.1;4.7;;;;;;;;;;;;;
2023/06/01 09:57:09;;;;;;;7.7;4.7;;;;;;;;;;;;;
2023/06/01 09:59:34;;;;;;;5.7;4.4;;;;;;;;;;;;;
2023/06/01 10:02:00;;;;;;;6.4;4.7;;;;;;;;;;;;;
2023/06/01 10:04:26;;;;;;;7.2;4.8;;;;;;;;;;;;;
2023/06/01 10:06:53;;;;;;;7.8;5.1;;;;;;;;;;;;;
2023/06/01 10:09:19;;;;;;;7.1;4.8;;;;;;;;;;;;;
2023/06/01 10:11:41;;;;;;;10.6;5.3;;;;;;;;;;;;;
2023/06/01 10:14:07;;;;;;;7.4;4.7;;;;;;;;;;;;;
2023/06/01 10:16:32;;;;;;;9.2;5.2;;;;;;;;;;;;;
2023/06/01 10:18:57;;;;;;;7.8;5;;;;;;;;;;;;;
2023/06/01 10:21:22;;;;;;;10.1;5.1;;;;;;;;;;;;;
2023/06/01 10:23:48;;;;;;;8.8;5;;;;;;;;;;;;;
2023/06/01 10:26:14;;;;;;;7.3;5.1;;;;;;;;;;;;;
2023/06/01 10:28:39;;;;;;;9.5;4.7;;;;;;;;;;;;;
2023/06/01 10:31:04;;;;;;;8.9;5;;;;;;;;;;;;;
2023/06/01 10:33:29;;;;;;;7.1;4.9;;;;;;;;;;;;;
2023/06/01 10:35:55;;;;;;;7;4.3;;;;;;;;;;;;;
2023/06/01 10:38:19;;;;;;;8.8;4.7;;;;;;;;;;;;;
2023/06/01 10:40:45;;;;;;;5.5;4.4;;;;;;;;;;;;;
2023/06/01 10:43:11;;;;;;;7.1;4.5;;;;;;;;;;;;;
2023/06/01 10:45:37;;;;;;;10.7;5.2;;;;;;;;;;;;;
2023/06/01 10:48:02;;;;;;;7.9;4.6;;;;;;;;;;;;;
2023/06/01 10:50:27;;;;;;;8.2;4.4;;;;;;;;;;;;;
2023/06/01 10:52:53;;;;;;;5.8;4.5;;;;;;;;;;;;;
2023/06/01 10:55:19;;;;;;;8.4;4.4;;;;;;;;;;;;;
2023/06/01 10:57:45;;;;;;;7.9;4.9;;;;;;;;;;;;;
2023/06/01 11:00:10;;;;;;;8.1;4.5;;;;;;;;;;;;;
2023/06/01 11:02:35;;;;;;;5.9;4.3;;;;;;;;;;;;;
2023/06/01 11:05:00;;;;;;;9;5.3;;;;;;;;;;;;;
2023/06/01 11:07:28;;;;;;;5;4;;;;;;;;;;;;;
2023/06/01 11:09:53;;;;;;;5.1;4.2;;;;;;;;;;;;;
2023/06/01 11:12:21;;;;;;;6.6;4.5;;;;;;;;;;;;;
2023/06/01 11:14:44;;;;;;;6.9;4.6;;;;;;;;;;;;;
2023/06/01 11:17:10;;;;;;;6.7;4.6;;;;;;;;;;;;;
2023/06/01 11:19:40;;;;;;;8.9;4.6;;;;;;;;;;;;;
2023/06/01 11:22:03;;;;;;;5.4;4.2;;;;;;;;;;;;;
2023/06/01 11:24:26;;;;;;;7.1;4.5;;;;;;;;;;;;;
2023/06/01 11:26:51;;;;;;;7.8;4.5;;;;;;;;;;;;;
2023/06/01 11:29:17;;;;;;;8.1;4.6;;;;;;;;;;;;;
2023/06/01 11:31:45;;;;;;;6;3.9;;;;;;;;;;;;;
2023/06/01 11:34:09;;;;;;;7.9;4.2;;;;;;;;;;;;;
2023/06/01 11:36:36;;;;;;;7.5;4.4;;;;;;;;;;;;;
2023/06/01 11:39:02;;;;;;;5.9;4.5;;;;;;;;;;;;;
2023/06/01 11:41:28;;;;;;;6.1;4.2;;;;;;;;;;;;;
2023/06/01 11:43:53;;;;;;;7.2;4.1;;;;;;;;;;;;;
2023/06/01 11:46:19;;;;;;;7.4;4.9;;;;;;;;;;;;;
2023/06/01 11:48:48;;;;;;;7.4;4.5;;;;;;;;;;;;;
2023/06/01 11:51:09;;;;;;;7.8;4.6;;;;;;;;;;;;;
2023/06/01 11:53:34;;;;;;;5.8;4.4;;;;;;;;;;;;;
2023/06/01 11:56:02;;;;;;;9.6;4.5;;;;;;;;;;;;;
2023/06/01 11:58:25;;;;;;;8.2;4.6;;;;;;;;;;;;;
2023/06/01 12:00:50;;;;;;;7.3;4.5;;;;;;;;;;;;;
2023/06/01 12:03:16;;;;;;;7.5;4.8;;;;;;;;;;;;;
2023/06/01 12:05:45;;;;;;;9.3;4.3;;;;;;;;;;;;;
2023/06/01 12:08:07;;;;;;;8;4.7;;;;;;;;;;;;;
2023/06/01 12:10:34;;;;;;;7.1;4.8;;;;;;;;;;;;;
2023/06/01 12:12:59;;;;;;;5;4.5;;;;;;;;;;;;;
2023/06/01 12:15:26;;;;;;;8.2;4.8;;;;;;;;;;;;;
2023/06/01 12:17:51;;;;;;;9.1;5;;;;;;;;;;;;;
2023/06/01 12:20:17;;;;;;;7.8;4.6;;;;;;;;;;;;;
2023/06/01 12:22:42;;;;;;;6.8;4.8;;;;;;;;;;;;;
2023/06/01 12:25:10;;;;;;;7;4.5;;;;;;;;;;;;;
2023/06/01 12:27:37;;;;;;;6.4;4.4;;;;;;;;;;;;;
2023/06/01 12:30:02;;;;;;;8.9;4.6;;;;;;;;;;;;;
2023/06/01 12:32:26;;;;;;;8.2;4.6;;;;;;;;;;;;;
2023/06/01 12:34:51;;;;;;;7.2;4.6;;;;;;;;;;;;;
2023/06/01 12:37:16;;;;;;;7.5;4.4;;;;;;;;;;;;;
2023/06/01 12:39:41;;;;;;;5.8;4.1;;;;;;;;;;;;;
2023/06/01 12:42:06;;;;;;;5.4;4.3;;;;;;;;;;;;;
2023/06/01 12:44:34;;;;;;;4.7;4.1;;;;;;;;;;;;;
2023/06/01 12:46:59;;;;;;;7.3;4.5;;;;;;;;;;;;;
2023/06/01 12:49:24;;;;;;;8.2;4;;;;;;;;;;;;;
2023/06/01 12:51:49;;;;;;;7.3;4.2;;;;;;;;;;;;;
2023/06/01 12:54:17;;;;;;;4.8;4;;;;;;;;;;;;;
2023/06/01 12:56:40;;;;;;;7.4;4.2;;;;;;;;;;;;;
2023/06/01 12:59:06;;;;;;;5.3;4;;;;;;;;;;;;;
2023/06/01 13:01:31;;;;;;;6.5;4.3;;;;;;;;;;;;;
2023/06/01 13:03:58;;;;;;;5.2;4.1;;;;;;;;;;;;;
2023/06/01 13:06:24;;;;;;;7.5;3.9;;;;;;;;;;;;;
2023/06/01 13:08:52;;;;;;;6;4.3;;;;;;;;;;;;;
2023/06/01 13:11:17;;;;;;;7.4;4.2;;;;;;;;;;;;;
2023/06/01 13:13:43;;;;;;;6.6;4.1;;;;;;;;;;;;;
2023/06/01 13:16:08;;;;;;;6.4;4;;;;;;;;;;;;;
2023/06/01 13:18:35;;;;;;;6.5;4;;;;;;;;;;;;;
2023/06/01 13:21:00;;;;;;;5.8;4;;;;;;;;;;;;;
2023/06/01 13:23:25;;;;;;;7.7;4.2;;;;;;;;;;;;;
2023/06/01 13:25:50;;;;;;;5.4;4.2;;;;;;;;;;;;;
2023/06/01 13:28:15;;;;;;;5.8;3.6;;;;;;;;;;;;;
2023/06/01 13:30:40;;;;;;;6.3;4.2;;;;;;;;;;;;;
2023/06/01 13:33:08;;;;;;;6.9;4.4;;;;;;;;;;;;;
2023/06/01 13:35:33;;;;;;;4.9;4;;;;;;;;;;;;;
2023/06/01 13:37:58;;;;;;;5.1;4.2;;;;;;;;;;;;;
2023/06/01 13:40:24;;;;;;;5.9;3.8;;;;;;;;;;;;;
2023/06/01 13:42:50;;;;;;;7;4.1;;;;;;;;;;;;;
2023/06/01 13:45:15;;;;;;;6.4;4;;;;;;;;;;;;;
2023/06/01 13:47:41;;;;;;;6.5;3.8;;;;;;;;;;;;;
2023/06/01 13:50:06;;;;;;;4.9;3.9;;;;;;;;;;;;;
2023/06/01 13:52:32;;;;;;;6;4.2;;;;;;;;;;;;;
2023/06/01 13:54:57;;;;;;;5.9;4.4;;;;;;;;;;;;;
2023/06/01 13:57:24;;;;;;;6.6;4.1;;;;;;;;;;;;;
2023/06/01 13:59:49;;;;;;;5;4;;;;;;;;;;;;;
2023/06/01 14:02:14;;;;;;;7.1;3.7;;;;;;;;;;;;;
2023/06/01 14:04:39;;;;;;;5.7;3;;;;;;;;;;;;;
2023/06/01 14:07:04;;;;;;;5;3.6;;;;;;;;;;;;;
2023/06/01 14:09:29;;;;;;;5.8;3.8;;;;;;;;;;;;;
2023/06/01 14:11:57;;;;;;;7.1;3.8;;;;;;;;;;;;;
2023/06/01 14:14:22;;;;;;;4.7;3.6;;;;;;;;;;;;;
2023/06/01 14:16:47;;;;;;;4.4;3.8;;;;;;;;;;;;;
2023/06/01 14:19:12;;;;;;;6.2;3.6;;;;;;;;;;;;;
2023/06/01 14:21:38;;;;;;;6.9;3.9;;;;;;;;;;;;;
2023/06/01 14:24:03;;;;;;;5.4;3.8;;;;;;;;;;;;;
2023/06/01 14:26:28;;;;;;;10.4;4.1;;;;;;;;;;;;;
2023/06/01 14:28:53;;;;;;;6.3;4.1;;;;;;;;;;;;;
2023/06/01 14:31:21;;;;;;;6.4;4;;;;;;;;;;;;;
2023/06/01 14:33:46;;;;;;;8;3.9;;;;;;;;;;;;;
2023/06/01 14:36:14;;;;;;;7.3;4.2;;;;;;;;;;;;;
2023/06/01 14:38:39;;;;;;;7.3;4.6;;;;;;;;;;;;;
2023/06/01 14:41:04;;;;;;;6.6;3.9;;;;;;;;;;;;;
2023/06/01 14:43:30;;;;;;;7;4.1;;;;;;;;;;;;;
2023/06/01 14:45:55;;;;;;;5.5;4;;;;;;;;;;;;;
2023/06/01 14:48:20;;;;;;;7;3.7;;;;;;;;;;;;;
2023/06/01 14:50:47;;;;;;;4.9;3.6;;;;;;;;;;;;;
2023/06/01 14:53:12;;;;;;;6.2;3.8;;;;;;;;;;;;;
2023/06/01 14:55:38;;;;;;;6.2;3.9;;;;;;;;;;;;;
2023/06/01 14:58:03;;;;;;;5.4;3.5;;;;;;;;;;;;;
2023/06/01 15:00:30;;;;;;;5.2;3.6;;;;;;;;;;;;;
2023/06/01 15:02:54;;;;;;;5.3;3.5;;;;;;;;;;;;;
2023/06/01 15:05:20;;;;;;;6.1;3.8;;;;;;;;;;;;;
2023/06/01 15:07:45;;;;;;;4.8;3.7;;;;;;;;;;;;;
2023/06/01 15:10:13;;;;;;;6.6;3.9;;;;;;;;;;;;;
2023/06/01 15:12:38;;;;;;;6.6;3.7;;;;;;;;;;;;;
2023/06/01 15:15:04;;;;;;;5.4;3.9;;;;;;;;;;;;;
2023/06/01 15:17:29;;;;;;;5;3.8;;;;;;;;;;;;;
2023/06/01 15:19:54;;;;;;;8.6;4.1;;;;;;;;;;;;;
2023/06/01 15:22:19;;;;;;;7.6;3.9;;;;;;;;;;;;;
2023/06/01 15:24:45;;;;;;;5.5;3.6;;;;;;;;;;;;;
2023/06/01 15:27:10;;;;;;;5.6;4;;;;;;;;;;;;;
2023/06/01 15:29:37;;;;;;;7.8;4.1;;;;;;;;;;;;;
2023/06/01 15:32:02;;;;;;;4.6;4;;;;;;;;;;;;;
2023/06/01 15:34:28;;;;;;;6.4;3.7;;;;;;;;;;;;;
2023/06/01 15:36:55;;;;;;;6.9;3.7;;;;;;;;;;;;;
2023/06/01 15:39:20;;;;;;;6.8;4.3;;;;;;;;;;;;;
2023/06/01 15:41:45;;;;;;;6;3.6;;;;;;;;;;;;;
2023/06/01 15:44:12;;;;;;;5.8;3.7;;;;;;;;;;;;;
2023/06/01 15:46:37;;;;;;;7.4;3.8;;;;;;;;;;;;;
2023/06/01 15:49:02;;;;;;;7;4.1;;;;;;;;;;;;;
2023/06/01 15:51:27;;;;;;;5.2;4.1;;;;;;;;;;;;;
2023/06/01 15:53:54;;;;;;;6.4;4;;;;;;;;;;;;;
2023/06/01 15:56:19;;;;;;;6.2;3.6;;;;;;;;;;;;;
2023/06/01 15:58:49;;;;;;;5.8;3.8;;;;;;;;;;;;;
2023/06/01 16:01:10;;;;;;;5.4;4;;;;;;;;;;;;;
2023/06/01 16:03:36;;;;;;;7.8;4.2;;;;;;;;;;;;;
2023/06/01 16:06:02;;;;;;;5;3.9;;;;;;;;;;;;;
2023/06/01 16:08:27;;;;;;;5.3;4.1;;;;;;;;;;;;;
2023/06/01 16:10:52;;;;;;;4.7;3.5;;;;;;;;;;;;;
2023/06/01 16:13:19;;;;;;;6.9;3.9;;;;;;;;;;;;;
2023/06/01 16:15:44;;;;;;;6.2;3.6;;;;;;;;;;;;;
2023/06/01 16:18:10;;;;;;;5.5;3.7;;;;;;;;;;;;;
2023/06/01 16:20:35;;;;;;;5.5;3.6;;;;;;;;;;;;;
2023/06/01 16:23:01;;;;;;;5.3;3.7;;;;;;;;;;;;;
2023/06/01 16:25:26;;;;;;;5.1;3.6;;;;;;;;;;;;;
2023/06/01 16:27:52;;;;;;;4.7;3.9;;;;;;;;;;;;;
2023/06/01 16:30:18;;;;;;;6.2;3.3;;;;;;;;;;;;;
2023/06/01 16:32:43;;;;;;;4.5;3.2;;;;;;;;;;;;;
2023/06/01 16:35:08;;;;;;;4.6;3.2;;;;;;;;;;;;;
2023/06/01 16:37:35;;;;;;;5.5;3.5;;;;;;;;;;;;;
2023/06/01 16:40:00;;;;;;;7.1;3.7;;;;;;;;;;;;;
2023/06/01 16:42:25;;;;;;;4.4;3.4;;;;;;;;;;;;;
2023/06/01 16:44:50;;;;;;;5.3;3.6;;;;;;;;;;;;;
2023/06/01 16:47:17;;;;;;;6.4;3.8;;;;;;;;;;;;;
2023/06/01 16:49:42;;;;;;;7.6;3.6;;;;;;;;;;;;;
2023/06/01 16:52:07;;;;;;;5.8;3.5;;;;;;;;;;;;;
2023/06/01 16:54:33;;;;;;;6.7;3.9;;;;;;;;;;;;;
2023/06/01 16:57:00;;;;;;;7.1;3.9;;;;;;;;;;;;;
2023/06/01 16:59:24;;;;;;;4.2;3.5;;;;;;;;;;;;;
2023/06/01 17:01:50;;;;;;;4.8;3.5;;;;;;;;;;;;;
2023/06/01 17:04:16;;;;;;;7.3;4;;;;;;;;;;;;;
2023/06/01 17:06:43;;;;;;;6.4;4;;;;;;;;;;;;;
2023/06/01 17:09:08;;;;;;;6.2;3.5;;;;;;;;;;;;;
2023/06/01 17:11:36;;;;;;;6.9;4.2;;;;;;;;;;;;;
2023/06/01 17:14:01;;;;;;;5.5;3.6;;;;;;;;;;;;;
2023/06/01 17:16:26;;;;;;;6.1;3.7;;;;;;;;;;;;;
2023/06/01 17:18:51;;;;;;;6.2;3.7;;;;;;;;;;;;;
2023/06/01 17:21:18;;;;;;;5.8;3.9;;;;;;;;;;;;;
2023/06/01 17:23:43;;;;;;;5.8;3.8;;;;;;;;;;;;;
2023/06/01 17:26:08;;;;;;;6.4;3.8;;;;;;;;;;;;;
2023/06/01 17:28:33;;;;;;;4.9;4;;;;;;;;;;;;;
2023/06/01 17:31:00;;;;;;;7.5;3.9;;;;;;;;;;;;;
2023/06/01 17:33:25;;;;;;;6.9;3.8;;;;;;;;;;;;;
2023/06/01 17:35:51;;;;;;;5.6;3.7;;;;;;;;;;;;;
2023/06/01 17:38:16;;;;;;;7.7;4.2;;;;;;;;;;;;;
2023/06/01 17:40:43;;;;;;;5.7;4.3;;;;;;;;;;;;;
2023/06/01 17:43:08;;;;;;;6.3;3.8;;;;;;;;;;;;;
2023/06/01 17:45:33;;;;;;;6.3;4.1;;;;;;;;;;;;;
2023/06/01 17:47:59;;;;;;;8.2;4.4;;;;;;;;;;;;;
2023/06/01 17:50:23;;;;;;;8.3;4.5;;;;;;;;;;;;;
2023/06/01 17:52:49;;;;;;;8.1;4.7;;;;;;;;;;;;;
2023/06/01 17:55:17;;;;;;;5.4;4.5;;;;;;;;;;;;;
2023/06/01 17:57:42;;;;;;;8.2;4.6;;;;;;;;;;;;;
2023/06/01 18:00:11;;;;;;;6.9;5.2;;;;;;;;;;;;;
2023/06/01 18:02:37;;;;;;;7.5;3.9;;;;;;;;;;;;;
2023/06/01 18:05:03;;;;;;;7.3;4.4;;;;;;;;;;;;;
2023/06/01 18:07:29;;;;;;;6.1;3.8;;;;;;;;;;;;;
2023/06/01 18:09:54;;;;;;;3.9;3.5;;;;;;;;;;;;;
2023/06/01 18:12:19;;;;;;;5.2;3.9;;;;;;;;;;;;;
2023/06/01 18:14:46;;;;;;;5.4;4;;;;;;;;;;;;;
2023/06/01 18:17:11;;;;;;;6.2;4;;;;;;;;;;;;;
2023/06/01 18:19:36;;;;;;;5.8;3.7;;;;;;;;;;;;;
2023/06/01 18:22:03;;;;;;;6.7;3.9;;;;;;;;;;;;;
2023/06/01 18:24:27;;;;;;;5.7;3.8;;;;;;;;;;;;;
2023/06/01 18:26:53;;;;;;;5.8;4.2;;;;;;;;;;;;;
2023/06/01 18:29:19;;;;;;;5.6;4.2;;;;;;;;;;;;;
2023/06/01 18:31:45;;;;;;;4.7;3.9;;;;;;;;;;;;;
2023/06/01 18:34:09;;;;;;;6.6;4.6;;;;;;;;;;;;;
2023/06/01 18:36:36;;;;;;;6.4;4.4;;;;;;;;;;;;;
2023/06/01 18:39:01;;;;;;;5.7;4.4;;;;;;;;;;;;;
2023/06/01 18:41:26;;;;;;;6.2;4.3;;;;;;;;;;;;;
2023/06/01 18:43:52;;;;;;;6.6;4.5;;;;;;;;;;;;;
2023/06/01 18:46:19;;;;;;;6.3;4.4;;;;;;;;;;;;;
2023/06/01 18:48:44;;;;;;;6;4.3;;;;;;;;;;;;;